Time,TemperatureF,DewpointF,PressureIn,WindDirection,WindDirectionDegrees,WindSpeedMPH,WindSpeedGustMPH,Humidity,HourlyPrecipIn,Conditions,Clouds,dailyrainin,SoftwareType,DateUTC
2013-03-26 00:00:00,34.5,27.5,30.01,WNW,289,1.0,10.0,75,0.00,,,0.00,meteohub,2013-03-26 04:00:00,
2013-03-26 00:05:00,34.5,27.5,30.01,NNW,346,3.0,10.0,75,0.00,,,0.00,meteohub,2013-03-26 04:05:00,
2013-03-26 00:10:00,34.3,27.3,30.01,NW,320,4.0,10.0,75,0.00,,,0.00,meteohub,2013-03-26 04:10:00,
2013-03-26 00:15:00,34.3,27.3,30.01,North,1,3.0,10.0,75,0.00,,,0.00,meteohub,2013-03-26 04:15:00,
2013-03-26 00:21:00,34.3,27.5,30.02,NNW,338,7.0,10.0,76,0.00,,,0.00,meteohub,2013-03-26 04:21:00,
2013-03-26 00:26:00,34.2,27.3,30.02,NW,322,5.0,8.0,76,0.00,,,0.00,meteohub,2013-03-26 04:26:00,
2013-03-26 00:31:00,34.2,27.3,30.02,North,349,4.0,8.0,76,0.00,,,0.00,meteohub,2013-03-26 04:31:00,
2013-03-26 00:36:00,34.2,27.3,30.02,NNE,12,4.0,8.0,76,0.00,,,0.00,meteohub,2013-03-26 04:36:00,
2013-03-26 00:41:00,34.2,27.3,30.02,NW,319,5.0,8.0,76,0.00,,,0.00,meteohub,2013-03-26 04:41:00,
2013-03-26 00:46:00,34.2,27.3,30.02,NW,326,3.0,8.0,76,0.00,,,0.00,meteohub,2013-03-26 04:46:00,
2013-03-26 00:52:00,34.2,27.3,30.02,NW,319,3.0,8.0,76,0.00,,,0.00,meteohub,2013-03-26 04:52:00,
2013-03-26 00:57:00,34.0,27.5,30.02,NNW,331,2.0,9.0,77,0.00,,,0.00,meteohub,2013-03-26 04:57:00,
2013-03-26 01:02:00,34.0,27.5,30.02,NW,316,3.0,9.0,77,0.00,,,0.00,meteohub,2013-03-26 05:02:00,
2013-03-26 01:07:00,34.0,27.5,30.02,NW,316,5.0,9.0,77,0.00,,,0.00,meteohub,2013-03-26 05:07:00,
2013-03-26 01:12:00,33.8,27.3,30.02,NNW,346,5.0,9.0,77,0.00,,,0.00,meteohub,2013-03-26 05:12:00,
2013-03-26 01:17:00,33.6,27.5,30.02,NNW,329,4.0,9.0,78,0.00,,,0.00,meteohub,2013-03-26 05:17:00,
2013-03-26 01:22:00,33.6,27.5,30.03,NW,321,4.0,9.0,78,0.00,,,0.00,meteohub,2013-03-26 05:22:00,
2013-03-26 01:27:00,33.6,27.5,30.03,NW,308,4.0,9.0,78,0.00,,,0.00,meteohub,2013-03-26 05:27:00,
2013-03-26 01:32:00,33.6,27.5,30.03,NW,315,4.0,9.0,78,0.00,,,0.00,meteohub,2013-03-26 05:32:00,
2013-03-26 01:37:00,33.6,27.5,30.03,North,358,5.0,9.0,78,0.00,,,0.00,meteohub,2013-03-26 05:37:00,
2013-03-26 01:43:00,33.4,27.3,30.03,NW,322,5.0,9.0,78,0.00,,,0.00,meteohub,2013-03-26 05:43:00,
2013-03-26 01:48:00,33.4,27.7,30.03,NNW,346,3.0,7.0,79,0.00,,,0.00,meteohub,2013-03-26 05:48:00,
2013-03-26 01:53:00,33.4,27.7,30.03,North,359,4.0,7.0,79,0.00,,,0.00,meteohub,2013-03-26 05:53:00,
2013-03-26 01:58:00,33.4,27.7,30.03,North,1,5.0,7.0,79,0.00,,,0.00,meteohub,2013-03-26 05:58:00,
2013-03-26 02:03:00,33.3,27.5,30.03,North,349,2.0,7.0,79,0.00,,,0.00,meteohub,2013-03-26 06:03:00,
2013-03-26 02:08:00,33.3,27.7,30.03,North,354,3.0,7.0,80,0.00,,,0.00,meteohub,2013-03-26 06:08:00,
2013-03-26 02:13:00,33.3,27.7,30.03,North,358,4.0,8.0,80,0.00,,,0.00,meteohub,2013-03-26 06:13:00,
2013-03-26 02:18:00,33.3,27.7,30.03,North,353,2.0,8.0,80,0.00,,,0.00,meteohub,2013-03-26 06:18:00,
2013-03-26 02:23:00,33.3,27.7,30.04,North,349,4.0,8.0,80,0.00,,,0.00,meteohub,2013-03-26 06:23:00,
2013-03-26 02:28:00,33.3,27.7,30.04,NNW,331,5.0,8.0,80,0.00,,,0.00,meteohub,2013-03-26 06:28:00,
2013-03-26 02:33:00,33.1,27.5,30.04,NW,326,2.0,7.0,80,0.00,,,0.00,meteohub,2013-03-26 06:33:00,
2013-03-26 02:38:00,33.1,27.5,30.04,NW,321,4.0,7.0,80,0.00,,,0.00,meteohub,2013-03-26 06:38:00,
2013-03-26 02:44:00,33.1,27.9,30.04,NW,306,3.0,7.0,81,0.00,,,0.00,meteohub,2013-03-26 06:44:00,
2013-03-26 02:49:00,33.1,27.9,30.04,NW,308,4.0,7.0,81,0.00,,,0.00,meteohub,2013-03-26 06:49:00,
2013-03-26 02:54:00,33.1,27.9,30.04,NNE,15,2.0,6.0,81,0.00,,,0.00,meteohub,2013-03-26 06:54:00,
2013-03-26 02:59:00,33.1,27.9,30.04,NNW,347,3.0,6.0,81,0.00,,,0.00,meteohub,2013-03-26 06:59:00,
2013-03-26 03:04:00,33.1,27.9,30.04,NNW,329,3.0,6.0,81,0.00,,,0.00,meteohub,2013-03-26 07:04:00,
2013-03-26 03:09:00,32.9,27.7,30.03,NW,325,6.0,6.0,81,0.00,,,0.00,meteohub,2013-03-26 07:09:00,
2013-03-26 03:14:00,32.7,27.9,30.03,NNW,346,3.0,6.0,82,0.00,,,0.00,meteohub,2013-03-26 07:14:00,
2013-03-26 03:19:00,32.7,27.9,30.03,NW,316,3.0,7.0,82,0.00,,,0.00,meteohub,2013-03-26 07:19:00,
2013-03-26 03:24:00,32.7,27.9,30.03,NW,323,2.0,7.0,82,0.00,,,0.00,meteohub,2013-03-26 07:24:00,
2013-03-26 03:29:00,32.7,27.9,30.04,NW,323,1.0,7.0,82,0.00,,,0.00,meteohub,2013-03-26 07:29:00,
2013-03-26 03:34:00,32.7,28.2,30.04,North,349,3.0,7.0,83,0.00,,,0.00,meteohub,2013-03-26 07:34:00,
2013-03-26 03:39:00,32.7,28.2,30.04,NW,316,2.0,6.0,83,0.00,,,0.00,meteohub,2013-03-26 07:39:00,
2013-03-26 03:44:00,32.5,28.0,30.04,NW,326,2.0,6.0,83,0.00,,,0.00,meteohub,2013-03-26 07:44:00,
2013-03-26 03:49:00,32.5,28.0,30.04,North,358,2.0,6.0,83,0.00,,,0.00,meteohub,2013-03-26 07:49:00,
2013-03-26 03:54:00,32.5,28.0,30.04,NW,309,2.0,6.0,83,0.00,,,0.00,meteohub,2013-03-26 07:54:00,
2013-03-26 03:59:00,32.5,28.2,30.04,North,5,2.0,4.0,84,0.00,,,0.00,meteohub,2013-03-26 07:59:00,
2013-03-26 04:04:00,32.5,28.2,30.04,NW,324,3.0,4.0,84,0.00,,,0.00,meteohub,2013-03-26 08:04:00,
2013-03-26 04:09:00,32.5,28.2,30.04,NW,326,2.0,4.0,84,0.00,,,0.00,meteohub,2013-03-26 08:09:00,
2013-03-26 04:14:00,32.5,28.2,30.04,NW,315,3.0,4.0,84,0.00,,,0.00,meteohub,2013-03-26 08:14:00,
2013-03-26 04:19:00,32.5,28.2,30.04,NNW,327,3.0,4.0,84,0.00,,,0.00,meteohub,2013-03-26 08:19:00,
2013-03-26 04:25:00,32.5,28.6,30.04,NNW,330,2.0,4.0,85,0.00,,,0.00,meteohub,2013-03-26 08:25:00,
2013-03-26 04:30:00,32.5,28.6,30.04,NNW,331,2.0,4.0,85,0.00,,,0.00,meteohub,2013-03-26 08:30:00,
2013-03-26 04:35:00,32.4,28.4,30.04,NNW,329,3.0,4.0,85,0.00,,,0.00,meteohub,2013-03-26 08:35:00,
2013-03-26 04:40:00,32.4,28.4,30.04,NW,309,3.0,4.0,85,0.00,,,0.00,meteohub,2013-03-26 08:40:00,
2013-03-26 04:45:00,32.4,28.4,30.04,NW,316,4.0,4.0,85,0.00,,,0.00,meteohub,2013-03-26 08:45:00,
2013-03-26 04:50:00,32.2,28.2,30.04,NW,314,4.0,4.0,85,0.00,,,0.00,meteohub,2013-03-26 08:50:00,
2013-03-26 04:55:00,32.2,28.2,30.04,NW,316,3.0,4.0,85,0.00,,,0.00,meteohub,2013-03-26 08:55:00,
2013-03-26 05:00:00,31.8,28.0,30.04,NW,306,2.0,4.0,86,0.00,,,0.00,meteohub,2013-03-26 09:00:00,
2013-03-26 05:05:00,31.6,27.9,30.04,NW,319,2.0,6.0,86,0.00,,,0.00,meteohub,2013-03-26 09:05:00,
2013-03-26 05:10:00,31.5,27.7,30.04,WNW,301,2.0,6.0,86,0.00,,,0.00,meteohub,2013-03-26 09:10:00,
2013-03-26 05:15:00,31.5,27.7,30.05,NW,305,3.0,6.0,86,0.00,,,0.00,meteohub,2013-03-26 09:15:00,
2013-03-26 05:20:00,31.3,27.5,30.04,WNW,295,3.0,6.0,86,0.00,,,0.00,meteohub,2013-03-26 09:20:00,
2013-03-26 05:25:00,31.3,27.9,30.05,NW,314,5.0,6.0,87,0.00,,,0.00,meteohub,2013-03-26 09:25:00,
2013-03-26 05:31:00,30.9,27.5,30.05,NW,309,2.0,6.0,87,0.00,,,0.00,meteohub,2013-03-26 09:31:00,
2013-03-26 05:36:00,30.9,27.5,30.05,WNW,300,1.0,6.0,87,0.00,,,0.00,meteohub,2013-03-26 09:36:00,
2013-03-26 05:41:00,30.7,27.3,30.05,NW,304,3.0,5.0,87,0.00,,,0.00,meteohub,2013-03-26 09:41:00,
2013-03-26 05:46:00,30.7,27.7,30.05,NW,309,3.0,5.0,88,0.00,,,0.00,meteohub,2013-03-26 09:46:00,
2013-03-26 05:52:00,30.7,27.7,30.06,NW,313,2.0,5.0,88,0.00,,,0.00,meteohub,2013-03-26 09:52:00,
2013-03-26 05:57:00,30.7,27.7,30.06,WNW,301,3.0,5.0,88,0.00,,,0.00,meteohub,2013-03-26 09:57:00,
2013-03-26 06:02:00,30.6,27.5,30.06,WNW,290,4.0,5.0,88,0.00,,,0.00,meteohub,2013-03-26 10:02:00,
2013-03-26 06:07:00,30.6,27.5,30.06,NW,309,3.0,5.0,88,0.00,,,0.00,meteohub,2013-03-26 10:07:00,
2013-03-26 06:12:00,30.4,27.3,30.06,NW,308,4.0,5.0,88,0.00,,,0.00,meteohub,2013-03-26 10:12:00,
2013-03-26 06:17:00,30.4,27.3,30.06,WNW,298,3.0,5.0,88,0.00,,,0.00,meteohub,2013-03-26 10:17:00,
2013-03-26 06:22:00,30.4,27.3,30.06,WNW,303,3.0,5.0,88,0.00,,,0.00,meteohub,2013-03-26 10:22:00,
2013-03-26 06:27:00,30.4,27.3,30.06,NW,309,2.0,5.0,88,0.00,,,0.00,meteohub,2013-03-26 10:27:00,
2013-03-26 06:32:00,30.2,27.3,30.06,NW,307,4.0,5.0,89,0.00,,,0.00,meteohub,2013-03-26 10:32:00,
2013-03-26 06:38:00,30.2,27.3,30.07,WNW,295,3.0,5.0,89,0.00,,,0.00,meteohub,2013-03-26 10:38:00,
2013-03-26 06:43:00,30.2,27.3,30.07,NW,304,3.0,5.0,89,0.00,,,0.00,meteohub,2013-03-26 10:43:00,
2013-03-26 06:48:00,30.4,27.5,30.07,WNW,301,5.0,5.0,89,0.00,,,0.00,meteohub,2013-03-26 10:48:00,
2013-03-26 06:53:00,30.4,27.5,30.07,NW,311,6.0,6.0,89,0.00,,,0.00,meteohub,2013-03-26 10:53:00,
2013-03-26 06:58:00,30.4,27.5,30.07,WNW,282,3.0,5.0,89,0.00,,,0.00,meteohub,2013-03-26 10:58:00,
2013-03-26 07:03:00,30.4,27.5,30.08,WNW,301,5.0,5.0,89,0.00,,,0.00,meteohub,2013-03-26 11:03:00,
2013-03-26 07:08:00,30.4,27.5,30.08,NW,320,6.0,8.0,89,0.00,,,0.00,meteohub,2013-03-26 11:08:00,
2013-03-26 07:13:00,30.4,27.5,30.08,NW,326,4.0,8.0,89,0.00,,,0.00,meteohub,2013-03-26 11:13:00,
2013-03-26 07:18:00,30.4,27.5,30.08,North,354,4.0,8.0,89,0.00,,,0.00,meteohub,2013-03-26 11:18:00,
2013-03-26 07:23:00,30.6,27.7,30.08,NNW,335,4.0,8.0,89,0.00,,,0.00,meteohub,2013-03-26 11:23:00,
2013-03-26 07:28:00,30.6,27.7,30.09,NW,326,4.0,8.0,89,0.00,,,0.00,meteohub,2013-03-26 11:28:00,
2013-03-26 07:33:00,30.6,27.7,30.09,NW,325,3.0,8.0,89,0.00,,,0.00,meteohub,2013-03-26 11:33:00,
2013-03-26 07:38:00,30.6,27.7,30.09,NW,316,4.0,8.0,89,0.00,,,0.00,meteohub,2013-03-26 11:38:00,
2013-03-26 07:43:00,30.6,27.7,30.09,NW,314,3.0,8.0,89,0.00,,,0.00,meteohub,2013-03-26 11:43:00,
2013-03-26 07:48:00,30.7,27.9,30.10,NW,316,3.0,8.0,89,0.00,,,0.00,meteohub,2013-03-26 11:48:00,
2013-03-26 07:54:00,30.7,27.9,30.10,NW,320,4.0,8.0,89,0.00,,,0.00,meteohub,2013-03-26 11:54:00,
2013-03-26 07:58:00,30.7,27.9,30.10,NW,308,4.0,8.0,89,0.00,,,0.00,meteohub,2013-03-26 11:58:00,
2013-03-26 08:04:00,30.7,27.9,30.10,WNW,298,2.0,9.0,89,0.00,,,0.00,meteohub,2013-03-26 12:04:00,
2013-03-26 08:09:00,30.9,28.0,30.10,NNW,331,6.0,9.0,89,0.00,,,0.00,meteohub,2013-03-26 12:09:00,
2013-03-26 08:14:00,30.9,28.0,30.10,NW,309,4.0,9.0,89,0.00,,,0.00,meteohub,2013-03-26 12:14:00,
2013-03-26 08:19:00,30.9,28.0,30.10,NW,316,3.0,9.0,89,0.00,,,0.00,meteohub,2013-03-26 12:19:00,
2013-03-26 08:24:00,30.9,28.0,30.10,NW,326,3.0,9.0,89,0.00,,,0.00,meteohub,2013-03-26 12:24:00,
2013-03-26 08:29:00,31.1,28.2,30.11,WNW,301,5.0,9.0,89,0.00,,,0.00,meteohub,2013-03-26 12:29:00,
2013-03-26 08:34:00,31.1,28.2,30.11,WNW,298,5.0,9.0,89,0.00,,,0.00,meteohub,2013-03-26 12:34:00,
2013-03-26 08:39:00,31.3,28.4,30.11,NW,315,3.0,9.0,89,0.00,,,0.00,meteohub,2013-03-26 12:39:00,
2013-03-26 08:44:00,31.3,28.4,30.11,WNW,290,4.0,7.0,89,0.00,,,0.00,meteohub,2013-03-26 12:44:00,
2013-03-26 08:49:00,31.3,28.8,30.12,West,275,6.0,7.0,90,0.00,,,0.00,meteohub,2013-03-26 12:49:00,
2013-03-26 08:54:00,31.5,28.9,30.12,NW,315,3.0,7.0,90,0.00,,,0.00,meteohub,2013-03-26 12:54:00,
2013-03-26 08:59:00,31.5,28.6,30.12,WNW,297,3.0,7.0,89,0.00,,,0.00,meteohub,2013-03-26 12:59:00,
2013-03-26 09:04:00,31.6,28.8,30.12,WNW,298,6.0,7.0,89,0.00,,,0.00,meteohub,2013-03-26 13:04:00,
2013-03-26 09:09:00,31.6,28.8,30.12,NW,304,5.0,7.0,89,0.00,,,0.00,meteohub,2013-03-26 13:09:00,
2013-03-26 09:14:00,31.6,29.1,30.12,NW,312,5.0,7.0,90,0.00,,,0.00,meteohub,2013-03-26 13:14:00,
2013-03-26 09:19:00,31.8,28.9,30.12,WNW,301,8.0,8.0,89,0.00,,,0.00,meteohub,2013-03-26 13:19:00,
2013-03-26 09:24:00,31.8,28.9,30.12,NW,315,8.0,8.0,89,0.00,,,0.00,meteohub,2013-03-26 13:24:00,
2013-03-26 09:29:00,32.2,29.7,30.12,NW,309,3.0,8.0,90,0.00,,,0.00,meteohub,2013-03-26 13:29:00,
2013-03-26 09:34:00,32.2,29.3,30.12,NW,304,8.0,8.0,89,0.00,,,0.00,meteohub,2013-03-26 13:34:00,
2013-03-26 09:39:00,32.4,29.5,30.12,NW,304,6.0,8.0,89,0.00,,,0.00,meteohub,2013-03-26 13:39:00,
2013-03-26 09:44:00,32.5,29.7,30.12,NW,304,7.0,8.0,89,0.00,,,0.00,meteohub,2013-03-26 13:44:00,
2013-03-26 09:49:00,32.7,29.8,30.12,NW,304,4.0,8.0,89,0.00,,,0.00,meteohub,2013-03-26 13:49:00,
2013-03-26 09:54:00,32.9,30.0,30.13,NNW,327,10.0,10.0,89,0.00,,,0.00,meteohub,2013-03-26 13:54:00,
2013-03-26 09:59:00,33.1,30.2,30.13,NNW,329,6.0,10.0,89,0.00,,,0.00,meteohub,2013-03-26 13:59:00,
2013-03-26 10:04:00,33.3,30.0,30.13,NW,326,5.0,10.0,88,0.00,,,0.00,meteohub,2013-03-26 14:04:00,
2013-03-26 10:09:00,33.4,30.2,30.13,WNW,293,4.0,10.0,88,0.00,,,0.00,meteohub,2013-03-26 14:09:00,
2013-03-26 10:15:00,33.6,30.4,30.13,NW,321,5.0,10.0,88,0.00,,,0.00,meteohub,2013-03-26 14:15:00,
2013-03-26 10:20:00,34.0,30.7,30.13,NW,325,7.0,10.0,88,0.00,,,0.00,meteohub,2013-03-26 14:20:00,
2013-03-26 10:25:00,34.0,30.6,30.13,North,357,9.0,10.0,87,0.00,,,0.00,meteohub,2013-03-26 14:25:00,
2013-03-26 10:30:00,34.3,30.9,30.13,WNW,297,4.0,8.0,87,0.00,,,0.00,meteohub,2013-03-26 14:30:00,
2013-03-26 10:35:00,34.5,30.7,30.13,NNW,342,7.0,8.0,86,0.00,,,0.00,meteohub,2013-03-26 14:35:00,
2013-03-26 10:40:00,35.1,31.3,30.13,North,1,7.0,8.0,86,0.00,,,0.00,meteohub,2013-03-26 14:40:00,
2013-03-26 10:45:00,35.1,30.9,30.13,NW,319,7.0,8.0,85,0.00,,,0.00,meteohub,2013-03-26 14:45:00,
2013-03-26 10:50:00,35.2,30.9,30.13,NW,326,5.0,8.0,84,0.00,,,0.00,meteohub,2013-03-26 14:50:00,
2013-03-26 10:55:00,35.2,30.9,30.14,WNW,301,5.0,8.0,84,0.00,,,0.00,meteohub,2013-03-26 14:55:00,
2013-03-26 11:00:00,35.4,31.1,30.14,NW,315,10.0,10.0,84,0.00,,,0.00,meteohub,2013-03-26 15:00:00,
2013-03-26 11:05:00,35.4,31.1,30.14,WNW,289,11.0,11.0,84,0.00,,,0.00,meteohub,2013-03-26 15:05:00,
2013-03-26 11:10:00,35.6,30.9,30.14,NW,323,7.0,13.0,83,0.00,,,0.00,meteohub,2013-03-26 15:10:00,
2013-03-26 11:15:00,35.6,30.9,30.14,WNW,300,12.0,13.0,83,0.00,,,0.00,meteohub,2013-03-26 15:15:00,
2013-03-26 11:20:00,35.6,30.9,30.14,WNW,301,5.0,13.0,83,0.00,,,0.00,meteohub,2013-03-26 15:20:00,
2013-03-26 11:25:00,36.0,31.3,30.14,NW,316,7.0,13.0,83,0.00,,,0.00,meteohub,2013-03-26 15:25:00,
2013-03-26 11:30:00,36.0,31.3,30.14,WNW,301,10.0,13.0,83,0.00,,,0.00,meteohub,2013-03-26 15:30:00,
2013-03-26 11:35:00,36.1,31.5,30.14,West,280,5.0,13.0,83,0.00,,,0.00,meteohub,2013-03-26 15:35:00,
2013-03-26 11:40:00,36.3,31.3,30.14,WNW,295,14.0,14.0,82,0.00,,,0.00,meteohub,2013-03-26 15:40:00,
2013-03-26 11:45:00,36.7,31.6,30.14,NW,321,3.0,11.0,82,0.00,,,0.00,meteohub,2013-03-26 15:45:00,
2013-03-26 11:50:00,37.0,31.8,30.14,WNW,297,9.0,11.0,81,0.00,,,0.00,meteohub,2013-03-26 15:50:00,
2013-03-26 11:55:00,37.0,31.5,30.14,NW,319,8.0,11.0,80,0.00,,,0.00,meteohub,2013-03-26 15:55:00,
2013-03-26 12:00:00,37.2,31.6,30.14,NW,307,9.0,11.0,80,0.00,,,0.00,meteohub,2013-03-26 16:00:00,
2013-03-26 12:06:00,37.2,31.6,30.14,WNW,300,11.0,11.0,80,0.00,,,0.00,meteohub,2013-03-26 16:06:00,
2013-03-26 12:11:00,37.2,31.6,30.14,NW,314,5.0,11.0,80,0.00,,,0.00,meteohub,2013-03-26 16:11:00,
2013-03-26 12:16:00,37.6,32.0,30.14,NW,307,13.0,13.0,80,0.00,,,0.00,meteohub,2013-03-26 16:16:00,
2013-03-26 12:21:00,37.9,32.4,30.13,WNW,293,9.0,16.0,80,0.00,,,0.00,meteohub,2013-03-26 16:21:00,
2013-03-26 12:26:00,38.1,31.8,30.13,WNW,295,11.0,16.0,78,0.00,,,0.00,meteohub,2013-03-26 16:26:00,
2013-03-26 12:31:00,38.3,31.6,30.13,WNW,298,10.0,16.0,77,0.00,,,0.00,meteohub,2013-03-26 16:31:00,
2013-03-26 12:36:00,38.5,31.6,30.13,NW,319,8.0,16.0,76,0.00,,,0.00,meteohub,2013-03-26 16:36:00,
2013-03-26 12:41:00,38.8,31.6,30.13,West,267,9.0,16.0,75,0.00,,,0.00,meteohub,2013-03-26 16:41:00,
2013-03-26 12:46:00,39.0,31.8,30.13,WNW,282,10.0,16.0,75,0.00,,,0.00,meteohub,2013-03-26 16:46:00,
2013-03-26 12:51:00,39.2,31.3,30.13,WNW,295,12.0,16.0,73,0.00,,,0.00,meteohub,2013-03-26 16:51:00,
2013-03-26 12:56:00,39.4,31.8,30.13,WNW,297,7.0,16.0,74,0.00,,,0.00,meteohub,2013-03-26 16:56:00,
2013-03-26 13:01:00,39.7,31.8,30.13,NW,319,7.0,16.0,73,0.00,,,0.00,meteohub,2013-03-26 17:01:00,
2013-03-26 13:06:00,39.4,30.7,30.13,NNW,340,6.0,16.0,71,0.00,,,0.00,meteohub,2013-03-26 17:06:00,
2013-03-26 13:11:00,39.6,31.3,30.13,NW,306,12.0,16.0,72,0.00,,,0.00,meteohub,2013-03-26 17:11:00,
2013-03-26 13:16:00,39.9,31.6,30.13,WNW,298,10.0,16.0,72,0.00,,,0.00,meteohub,2013-03-26 17:16:00,
2013-03-26 13:21:00,39.9,30.6,30.13,West,271,7.0,16.0,69,0.00,,,0.00,meteohub,2013-03-26 17:21:00,
2013-03-26 13:26:00,39.7,30.7,30.13,West,276,7.0,16.0,70,0.00,,,0.00,meteohub,2013-03-26 17:26:00,
2013-03-26 13:32:00,39.6,30.2,30.13,NW,311,6.0,16.0,69,0.00,,,0.00,meteohub,2013-03-26 17:32:00,
2013-03-26 13:37:00,39.6,31.3,30.12,WNW,293,8.0,16.0,72,0.00,,,0.00,meteohub,2013-03-26 17:37:00,
2013-03-26 13:42:00,39.6,31.6,30.12,WNW,283,9.0,16.0,73,0.00,,,0.00,meteohub,2013-03-26 17:42:00,
2013-03-26 13:47:00,39.4,32.2,30.12,West,280,8.0,13.0,75,0.00,,,0.00,meteohub,2013-03-26 17:47:00,
2013-03-26 13:52:00,39.4,32.2,30.12,West,276,8.0,13.0,75,0.00,,,0.00,meteohub,2013-03-26 17:52:00,
2013-03-26 13:57:00,39.4,31.5,30.13,WNW,283,6.0,13.0,73,0.00,,,0.00,meteohub,2013-03-26 17:57:00,
2013-03-26 14:02:00,38.8,32.2,30.13,WNW,289,12.0,13.0,77,0.00,,,0.00,meteohub,2013-03-26 18:02:00,
2013-03-26 14:07:00,38.1,29.5,30.13,NW,304,5.0,13.0,71,0.00,,,0.00,meteohub,2013-03-26 18:07:00,
2013-03-26 14:12:00,37.8,29.8,30.13,NW,304,9.0,13.0,73,0.00,,,0.00,meteohub,2013-03-26 18:12:00,
2013-03-26 14:17:00,37.6,30.0,30.13,NW,304,5.0,13.0,74,0.00,,,0.00,meteohub,2013-03-26 18:17:00,
2013-03-26 14:22:00,37.6,30.0,30.13,NNW,335,7.0,15.0,74,0.00,,,0.00,meteohub,2013-03-26 18:22:00,
2013-03-26 14:27:00,37.8,30.6,30.13,NW,315,5.0,15.0,75,0.00,,,0.00,meteohub,2013-03-26 18:27:00,
2013-03-26 14:32:00,37.9,31.1,30.13,NW,306,6.0,15.0,76,0.00,,,0.00,meteohub,2013-03-26 18:32:00,
2013-03-26 14:37:00,37.9,31.6,30.13,NNW,335,6.0,15.0,78,0.00,,,0.00,meteohub,2013-03-26 18:37:00,
2013-03-26 14:42:00,37.6,32.4,30.13,West,262,5.0,10.0,81,0.00,,,0.00,meteohub,2013-03-26 18:42:00,
2013-03-26 14:47:00,37.4,32.4,30.13,WNW,297,9.0,10.0,82,0.00,,,0.00,meteohub,2013-03-26 18:47:00,
2013-03-26 14:52:00,37.2,32.2,30.13,NW,314,7.0,10.0,82,0.00,,,0.00,meteohub,2013-03-26 18:52:00,
2013-03-26 14:57:00,37.0,32.0,30.13,NW,326,8.0,10.0,82,0.00,,,0.00,meteohub,2013-03-26 18:57:00,
2013-03-26 15:02:00,37.0,32.0,30.12,WNW,284,6.0,13.0,82,0.00,,,0.00,meteohub,2013-03-26 19:02:00,
2013-03-26 15:08:00,37.6,32.5,30.12,WNW,293,8.0,13.0,82,0.00,,,0.00,meteohub,2013-03-26 19:08:00,
2013-03-26 15:13:00,37.6,32.4,30.12,WNW,301,10.0,13.0,81,0.00,,,0.00,meteohub,2013-03-26 19:13:00,
2013-03-26 15:18:00,37.6,32.4,30.13,NW,304,11.0,13.0,81,0.00,,,0.00,meteohub,2013-03-26 19:18:00,
2013-03-26 15:23:00,37.6,32.5,30.13,WNW,300,5.0,13.0,82,0.00,,,0.00,meteohub,2013-03-26 19:23:00,
2013-03-26 15:28:00,37.8,33.1,30.13,WNW,293,13.0,16.0,83,0.00,,,0.00,meteohub,2013-03-26 19:28:00,
2013-03-26 15:33:00,37.8,32.7,30.13,WNW,300,8.0,16.0,82,0.00,,,0.00,meteohub,2013-03-26 19:33:00,
2013-03-26 15:38:00,38.1,32.7,30.12,NW,326,11.0,16.0,81,0.00,,,0.00,meteohub,2013-03-26 19:38:00,
2013-03-26 15:43:00,38.3,32.4,30.12,NW,316,9.0,16.0,79,0.00,,,0.00,meteohub,2013-03-26 19:43:00,
2013-03-26 15:48:00,38.3,31.6,30.12,NW,304,6.0,13.0,77,0.00,,,0.00,meteohub,2013-03-26 19:48:00,
2013-03-26 15:53:00,38.5,32.2,30.12,WNW,293,6.0,13.0,78,0.00,,,0.00,meteohub,2013-03-26 19:53:00,
2013-03-26 15:58:00,38.5,32.5,30.12,West,281,18.0,18.0,79,0.00,,,0.00,meteohub,2013-03-26 19:58:00,
2013-03-26 16:03:00,36.9,32.5,30.13,NW,326,7.0,13.0,84,0.00,,,0.00,meteohub,2013-03-26 20:03:00,
2013-03-26 16:09:00,35.2,32.0,30.13,WNW,283,7.0,20.0,88,0.00,,,0.00,meteohub,2013-03-26 20:09:00,
2013-03-26 16:13:00,34.7,32.0,30.13,NW,304,5.0,20.0,90,0.00,,,0.00,meteohub,2013-03-26 20:13:00,
2013-03-26 16:19:00,34.5,32.2,30.13,WNW,289,2.0,20.0,91,0.00,,,0.00,meteohub,2013-03-26 20:19:00,
2013-03-26 16:24:00,35.1,32.9,30.13,West,263,2.0,20.0,92,0.00,,,0.00,meteohub,2013-03-26 20:24:00,
2013-03-26 16:29:00,35.4,33.3,30.13,West,277,2.0,20.0,92,0.00,,,0.00,meteohub,2013-03-26 20:29:00,
2013-03-26 16:34:00,35.8,33.1,30.13,WNW,290,10.0,10.0,90,0.00,,,0.00,meteohub,2013-03-26 20:34:00,
2013-03-26 16:39:00,35.1,32.2,30.13,West,268,4.0,6.0,89,0.00,,,0.00,meteohub,2013-03-26 20:39:00,
2013-03-26 16:44:00,34.9,32.0,30.13,WNW,282,7.0,7.0,89,0.00,,,0.00,meteohub,2013-03-26 20:44:00,
2013-03-26 16:49:00,35.2,32.4,30.13,West,273,6.0,6.0,89,0.00,,,0.00,meteohub,2013-03-26 20:49:00,
2013-03-26 16:54:00,36.0,32.7,30.13,WNW,298,3.0,6.0,88,0.00,,,0.00,meteohub,2013-03-26 20:54:00,
2013-03-26 16:59:00,37.0,33.3,30.12,WNW,290,6.0,7.0,86,0.00,,,0.00,meteohub,2013-03-26 20:59:00,
2013-03-26 17:04:00,37.8,33.4,30.12,WNW,286,8.0,8.0,84,0.00,,,0.00,meteohub,2013-03-26 21:04:00,
2013-03-26 17:09:00,38.3,34.0,30.13,West,275,11.0,11.0,84,0.00,,,0.01,meteohub,2013-03-26 21:09:00,
2013-03-26 17:14:00,38.3,33.6,30.12,West,277,11.0,11.0,83,0.00,,,0.01,meteohub,2013-03-26 21:14:00,
2013-03-26 17:19:00,38.3,34.0,30.12,WNW,282,8.0,16.0,84,0.01,,,0.01,meteohub,2013-03-26 21:19:00,
2013-03-26 17:24:00,38.5,34.2,30.13,West,278,6.0,16.0,84,0.01,,,0.01,meteohub,2013-03-26 21:24:00,
2013-03-26 17:29:00,38.3,33.6,30.13,West,274,12.0,16.0,83,0.01,,,0.02,meteohub,2013-03-26 21:29:00,
2013-03-26 17:34:00,36.9,32.7,30.14,North,353,5.0,16.0,85,0.01,,,0.02,meteohub,2013-03-26 21:34:00,
2013-03-26 17:39:00,34.9,32.0,30.14,ENE,77,3.0,16.0,89,0.02,,,0.02,meteohub,2013-03-26 21:39:00,
2013-03-26 17:45:00,34.2,31.8,30.14,NNW,331,3.0,16.0,91,0.02,,,0.02,meteohub,2013-03-26 21:45:00,
2013-03-26 17:50:00,33.6,31.8,30.14,NNW,340,5.0,16.0,93,0.02,,,0.02,meteohub,2013-03-26 21:50:00,
2013-03-26 17:55:00,33.4,31.6,30.14,NNW,331,3.0,16.0,93,0.02,,,0.02,meteohub,2013-03-26 21:55:00,
2013-03-26 18:01:00,33.4,31.8,30.14,WNW,293,4.0,7.0,94,0.02,,,0.02,meteohub,2013-03-26 22:01:00,
2013-03-26 18:06:00,33.4,31.8,30.14,NW,304,3.0,7.0,94,0.02,,,0.02,meteohub,2013-03-26 22:06:00,
2013-03-26 18:11:00,33.4,32.2,30.14,West,275,2.0,7.0,95,0.02,,,0.02,meteohub,2013-03-26 22:11:00,
2013-03-26 18:16:00,33.6,32.4,30.14,NW,316,3.0,7.0,95,0.02,,,0.02,meteohub,2013-03-26 22:16:00,
2013-03-26 18:21:00,33.6,32.4,30.14,NW,311,3.0,7.0,95,0.02,,,0.02,meteohub,2013-03-26 22:21:00,
2013-03-26 18:26:00,33.4,32.2,30.15,NW,304,4.0,7.0,95,0.02,,,0.02,meteohub,2013-03-26 22:26:00,
2013-03-26 18:31:00,33.3,32.0,30.15,NW,312,5.0,7.0,95,0.00,,,0.02,meteohub,2013-03-26 22:31:00,
2013-03-26 18:36:00,33.1,31.8,30.15,NW,315,5.0,7.0,95,0.00,,,0.02,meteohub,2013-03-26 22:36:00,
2013-03-26 18:41:00,33.1,31.8,30.15,WNW,287,3.0,7.0,95,0.00,,,0.02,meteohub,2013-03-26 22:41:00,
2013-03-26 18:46:00,33.1,31.8,30.15,WNW,298,5.0,7.0,95,0.00,,,0.02,meteohub,2013-03-26 22:46:00,
2013-03-26 18:51:00,33.1,31.8,30.15,WNW,287,5.0,7.0,95,0.00,,,0.02,meteohub,2013-03-26 22:51:00,
2013-03-26 18:56:00,33.1,31.8,30.15,West,270,5.0,7.0,95,0.00,,,0.02,meteohub,2013-03-26 22:56:00,
2013-03-26 19:02:00,33.3,32.2,30.15,West,272,5.0,7.0,96,0.00,,,0.02,meteohub,2013-03-26 23:02:00,
2013-03-26 19:07:00,33.3,32.2,30.15,West,276,3.0,9.0,96,0.00,,,0.02,meteohub,2013-03-26 23:07:00,
2013-03-26 19:12:00,33.3,32.2,30.15,West,277,2.0,9.0,96,0.00,,,0.02,meteohub,2013-03-26 23:12:00,
2013-03-26 19:17:00,33.4,32.4,30.15,West,278,4.0,9.0,96,0.00,,,0.02,meteohub,2013-03-26 23:17:00,
2013-03-26 19:22:00,33.4,32.4,30.15,West,275,2.0,9.0,96,0.00,,,0.02,meteohub,2013-03-26 23:22:00,
2013-03-26 19:27:00,33.6,32.9,30.15,West,269,4.0,9.0,97,0.00,,,0.02,meteohub,2013-03-26 23:27:00,
2013-03-26 19:32:00,33.6,32.9,30.15,WNW,298,2.0,9.0,97,0.00,,,0.02,meteohub,2013-03-26 23:32:00,
2013-03-26 19:37:00,33.6,32.9,30.15,WNW,285,3.0,5.0,97,0.00,,,0.02,meteohub,2013-03-26 23:37:00,
2013-03-26 19:42:00,34.0,33.3,30.16,WNW,290,2.0,5.0,97,0.00,,,0.02,meteohub,2013-03-26 23:42:00,
2013-03-26 19:47:00,34.0,33.3,30.16,WNW,293,3.0,5.0,97,0.00,,,0.02,meteohub,2013-03-26 23:47:00,
2013-03-26 19:52:00,34.0,32.9,30.16,NNE,23,3.0,5.0,96,0.00,,,0.02,meteohub,2013-03-26 23:52:00,
2013-03-26 19:57:00,33.6,32.5,30.16,WNW,290,2.0,5.0,96,0.00,,,0.02,meteohub,2013-03-26 23:57:00,
2013-03-26 20:03:00,33.6,32.9,30.16,North,11,1.0,5.0,97,0.00,,,0.02,meteohub,2013-03-27 00:03:00,
2013-03-26 20:08:00,33.6,32.9,30.17,North,1,0.0,5.0,97,0.00,,,0.02,meteohub,2013-03-27 00:08:00,
2013-03-26 20:13:00,33.6,32.9,30.17,WNW,286,2.0,5.0,97,0.00,,,0.02,meteohub,2013-03-27 00:13:00,
2013-03-26 20:18:00,33.8,33.1,30.17,WNW,295,3.0,5.0,97,0.00,,,0.02,meteohub,2013-03-27 00:18:00,
2013-03-26 20:23:00,34.0,33.3,30.17,West,278,2.0,3.0,97,0.00,,,0.02,meteohub,2013-03-27 00:23:00,
2013-03-26 20:28:00,34.0,33.3,30.17,West,270,2.0,3.0,97,0.00,,,0.02,meteohub,2013-03-27 00:28:00,
2013-03-26 20:33:00,34.0,33.3,30.17,West,281,2.0,3.0,97,0.00,,,0.02,meteohub,2013-03-27 00:33:00,
2013-03-26 20:38:00,34.0,32.9,30.17,WNW,283,3.0,3.0,96,0.00,,,0.02,meteohub,2013-03-27 00:38:00,
2013-03-26 20:43:00,34.2,33.1,30.17,WNW,287,3.0,6.0,96,0.00,,,0.02,meteohub,2013-03-27 00:43:00,
2013-03-26 20:48:00,34.2,32.9,30.17,WNW,290,6.0,6.0,95,0.00,,,0.02,meteohub,2013-03-27 00:48:00,
2013-03-26 20:53:00,34.3,33.1,30.17,WNW,295,4.0,6.0,95,0.00,,,0.02,meteohub,2013-03-27 00:53:00,
2013-03-26 20:58:00,34.3,32.7,30.18,WNW,300,4.0,6.0,94,0.00,,,0.02,meteohub,2013-03-27 00:58:00,
2013-03-26 21:03:00,34.3,32.7,30.18,WNW,297,6.0,6.0,94,0.00,,,0.02,meteohub,2013-03-27 01:03:00,
2013-03-26 21:08:00,34.3,32.5,30.18,WNW,298,3.0,6.0,93,0.00,,,0.02,meteohub,2013-03-27 01:08:00,
2013-03-26 21:13:00,34.3,32.5,30.18,WNW,290,5.0,8.0,93,0.00,,,0.02,meteohub,2013-03-27 01:13:00,
2013-03-26 21:18:00,34.3,32.5,30.18,West,281,4.0,8.0,93,0.00,,,0.02,meteohub,2013-03-27 01:18:00,
2013-03-26 21:23:00,34.3,32.5,30.19,WNW,293,4.0,8.0,93,0.00,,,0.02,meteohub,2013-03-27 01:23:00,
2013-03-26 21:28:00,34.3,32.2,30.19,WNW,295,2.0,8.0,92,0.00,,,0.02,meteohub,2013-03-27 01:28:00,
2013-03-26 21:33:00,34.3,32.2,30.19,WNW,295,7.0,8.0,92,0.00,,,0.02,meteohub,2013-03-27 01:33:00,
2013-03-26 21:38:00,34.3,32.2,30.19,WNW,301,6.0,8.0,92,0.00,,,0.02,meteohub,2013-03-27 01:38:00,
2013-03-26 21:43:00,34.3,32.0,30.19,WNW,297,3.0,8.0,91,0.00,,,0.02,meteohub,2013-03-27 01:43:00,
2013-03-26 21:49:00,34.3,32.0,30.19,NW,307,5.0,8.0,91,0.00,,,0.02,meteohub,2013-03-27 01:49:00,
2013-03-26 21:54:00,34.5,32.2,30.19,NW,304,4.0,8.0,91,0.00,,,0.02,meteohub,2013-03-27 01:54:00,
2013-03-26 21:59:00,34.5,31.8,30.19,WNW,298,4.0,7.0,90,0.00,,,0.02,meteohub,2013-03-27 01:59:00,
2013-03-26 22:04:00,34.5,31.8,30.20,WNW,301,4.0,7.0,90,0.00,,,0.02,meteohub,2013-03-27 02:04:00,
2013-03-26 22:09:00,34.5,31.6,30.20,NW,318,5.0,7.0,89,0.00,,,0.02,meteohub,2013-03-27 02:09:00,
2013-03-26 22:14:00,34.5,31.6,30.20,WNW,286,5.0,7.0,89,0.00,,,0.02,meteohub,2013-03-27 02:14:00,
2013-03-26 22:19:00,34.5,31.6,30.20,NNW,329,5.0,10.0,89,0.00,,,0.02,meteohub,2013-03-27 02:19:00,
2013-03-26 22:24:00,34.5,31.3,30.20,NW,312,6.0,10.0,88,0.00,,,0.02,meteohub,2013-03-27 02:24:00,
2013-03-26 22:29:00,34.5,31.3,30.20,NW,304,4.0,10.0,88,0.00,,,0.02,meteohub,2013-03-27 02:29:00,
2013-03-26 22:34:00,34.5,31.3,30.20,WNW,295,5.0,10.0,88,0.00,,,0.02,meteohub,2013-03-27 02:34:00,
2013-03-26 22:39:00,34.5,31.3,30.20,WSW,256,5.0,10.0,88,0.00,,,0.02,meteohub,2013-03-27 02:39:00,
2013-03-26 22:44:00,34.5,31.3,30.20,NW,304,3.0,8.0,88,0.00,,,0.02,meteohub,2013-03-27 02:44:00,
2013-03-26 22:49:00,34.5,31.3,30.20,NW,319,3.0,8.0,88,0.00,,,0.02,meteohub,2013-03-27 02:49:00,
2013-03-26 22:54:00,34.3,31.1,30.20,NW,326,7.0,8.0,88,0.00,,,0.02,meteohub,2013-03-27 02:54:00,
2013-03-26 22:59:00,34.3,31.1,30.20,NW,313,4.0,8.0,88,0.00,,,0.02,meteohub,2013-03-27 02:59:00,
2013-03-26 23:04:00,34.3,31.1,30.20,WNW,303,7.0,8.0,88,0.00,,,0.02,meteohub,2013-03-27 03:04:00,
2013-03-26 23:09:00,34.3,30.9,30.20,WNW,301,4.0,8.0,87,0.00,,,0.02,meteohub,2013-03-27 03:09:00,
2013-03-26 23:14:00,34.3,30.9,30.20,WNW,290,2.0,8.0,87,0.00,,,0.02,meteohub,2013-03-27 03:14:00,
2013-03-26 23:19:00,34.3,30.9,30.21,NW,325,5.0,8.0,87,0.00,,,0.02,meteohub,2013-03-27 03:19:00,
2013-03-26 23:24:00,34.3,30.9,30.20,WNW,298,2.0,8.0,87,0.00,,,0.02,meteohub,2013-03-27 03:24:00,
2013-03-26 23:29:00,34.3,30.9,30.21,NW,326,5.0,8.0,87,0.00,,,0.02,meteohub,2013-03-27 03:29:00,
2013-03-26 23:34:00,34.3,30.9,30.21,NW,325,4.0,7.0,87,0.00,,,0.02,meteohub,2013-03-27 03:34:00,
2013-03-26 23:39:00,34.5,31.1,30.21,NW,324,5.0,7.0,87,0.00,,,0.02,meteohub,2013-03-27 03:39:00,
2013-03-26 23:44:00,34.5,31.1,30.21,WNW,301,6.0,7.0,87,0.00,,,0.02,meteohub,2013-03-27 03:44:00,
2013-03-26 23:49:00,34.5,31.1,30.21,NW,304,5.0,7.0,87,0.00,,,0.02,meteohub,2013-03-27 03:49:00,
2013-03-26 23:55:00,34.5,31.3,30.21,WNW,298,6.0,11.0,88,0.00,,,0.02,meteohub,2013-03-27 03:55:00,